createdAt,value
2019-04-29T00:01:50.696Z,8.10
2019-04-29T00:04:17.893Z,8.10
2019-04-29T00:06:44.940Z,8.10
2019-04-29T00:09:16.105Z,8.10
2019-04-29T00:11:43.420Z,8.10
2019-04-29T00:14:10.425Z,8.10
2019-04-29T00:16:39.323Z,8.10
2019-04-29T00:19:08.288Z,8.10
2019-04-29T00:21:35.559Z,8.00
2019-04-29T00:24:04.076Z,8.00
2019-04-29T00:26:31.497Z,8.00
2019-04-29T00:28:58.445Z,8.00
2019-04-29T00:31:25.432Z,8.00
2019-04-29T00:33:52.618Z,8.00
2019-04-29T00:36:21.571Z,7.90
2019-04-29T00:39:07.282Z,7.90
2019-04-29T00:41:51.229Z,7.90
2019-04-29T00:44:18.365Z,7.90
2019-04-29T00:46:45.845Z,7.80
2019-04-29T00:49:12.852Z,7.80
2019-04-29T00:51:39.838Z,7.90
2019-04-29T00:54:08.744Z,7.80
2019-04-29T00:56:35.779Z,7.80
2019-04-29T00:59:02.815Z,7.90
2019-04-29T01:01:30.298Z,7.90
2019-04-29T01:03:58.451Z,7.80
2019-04-29T01:06:25.407Z,7.80
2019-04-29T01:08:52.372Z,7.70
2019-04-29T01:11:19.406Z,7.70
2019-04-29T01:13:46.572Z,7.70
2019-04-29T01:16:13.705Z,7.70
2019-04-29T01:18:40.759Z,7.60
2019-04-29T01:21:07.641Z,7.60
2019-04-29T01:23:34.648Z,7.60
2019-04-29T01:26:20.425Z,7.60
2019-04-29T01:28:49.577Z,7.60
2019-04-29T01:31:18.504Z,7.60
2019-04-29T01:33:47.060Z,7.60
2019-04-29T01:36:16.017Z,7.60
2019-04-29T01:38:42.945Z,7.60
2019-04-29T01:41:17.957Z,7.60
2019-04-29T01:44:04.756Z,7.60
2019-04-29T01:46:31.676Z,7.60
2019-04-29T01:48:58.840Z,7.60
2019-04-29T01:51:25.975Z,7.50
2019-04-29T01:53:53.094Z,7.60
2019-04-29T01:56:20.048Z,7.60
2019-04-29T01:58:47.360Z,7.40
2019-04-29T02:01:14.418Z,7.40
2019-04-29T02:03:41.489Z,7.40
2019-04-29T02:06:08.364Z,7.40
2019-04-29T02:08:35.350Z,7.40
2019-04-29T02:11:02.469Z,7.40
2019-04-29T02:13:29.480Z,7.30
2019-04-29T02:15:56.481Z,7.30
2019-04-29T02:18:23.542Z,7.40
2019-04-29T02:20:50.625Z,7.30
2019-04-29T02:23:37.996Z,7.30
2019-04-29T02:26:05.812Z,7.20
2019-04-29T02:28:32.760Z,7.20
2019-04-29T02:31:01.786Z,7.20
2019-04-29T02:33:28.848Z,7.20
2019-04-29T02:35:55.835Z,7.20
2019-04-29T02:38:36.785Z,7.10
2019-04-29T02:41:08.685Z,7.10
2019-04-29T02:43:37.721Z,7.10
2019-04-29T02:46:04.791Z,7.10
2019-04-29T02:48:34.585Z,7.10
2019-04-29T02:51:00.723Z,7.10
2019-04-29T02:53:28.708Z,7.10
2019-04-29T02:55:57.638Z,7.00
2019-04-29T02:58:32.536Z,7.10
2019-04-29T03:01:20.022Z,7.00
2019-04-29T03:04:05.821Z,7.00
2019-04-29T03:06:32.853Z,6.90
2019-04-29T03:09:00.120Z,6.90
2019-04-29T03:11:27.376Z,6.90
2019-04-29T03:13:54.520Z,6.90
2019-04-29T03:16:21.484Z,7.00
2019-04-29T03:18:51.216Z,6.90
2019-04-29T03:21:20.367Z,6.90
2019-04-29T03:23:47.392Z,6.80
2019-04-29T03:26:14.412Z,6.90
2019-04-29T03:28:41.494Z,6.90
2019-04-29T03:31:08.486Z,6.90
2019-04-29T03:33:35.581Z,6.90
2019-04-29T03:36:02.642Z,7.00
2019-04-29T03:38:31.500Z,6.90
2019-04-29T03:40:58.378Z,6.90
2019-04-29T03:43:25.382Z,6.90
2019-04-29T03:45:52.380Z,6.90
2019-04-29T03:48:19.446Z,6.90
2019-04-29T03:50:46.460Z,6.90
2019-04-29T03:53:13.528Z,6.80
2019-04-29T03:55:40.847Z,6.90
2019-04-29T03:58:08.048Z,6.90
2019-04-29T04:00:35.070Z,6.90
2019-04-29T04:03:09.907Z,7.00
2019-04-29T04:05:40.612Z,7.00
2019-04-29T04:08:09.803Z,7.10
2019-04-29T04:10:36.847Z,7.10
2019-04-29T04:13:04.013Z,7.10
2019-04-29T04:15:31.169Z,7.10
2019-04-29T04:18:00.157Z,7.00
2019-04-29T04:20:29.656Z,7.00
2019-04-29T04:22:56.784Z,7.10
2019-04-29T04:25:23.721Z,7.10
2019-04-29T04:27:50.624Z,7.00
2019-04-29T04:30:18.256Z,7.00
2019-04-29T04:32:45.405Z,7.10
2019-04-29T04:35:12.494Z,7.00
2019-04-29T04:37:39.532Z,7.00
2019-04-29T04:40:09.344Z,7.00
2019-04-29T04:42:36.233Z,7.10
2019-04-29T04:45:03.985Z,7.00
2019-04-29T04:47:31.159Z,7.10
2019-04-29T04:49:58.286Z,7.00
2019-04-29T04:52:25.181Z,7.10
2019-04-29T04:54:54.128Z,7.20
2019-04-29T04:57:21.158Z,7.20
2019-04-29T04:59:48.312Z,7.30
2019-04-29T05:02:15.496Z,7.40
2019-04-29T05:04:42.464Z,7.40
2019-04-29T05:07:09.446Z,7.40
2019-04-29T05:09:36.484Z,7.40
2019-04-29T05:12:03.432Z,7.50
2019-04-29T05:14:30.401Z,7.50
2019-04-29T05:16:57.397Z,7.60
2019-04-29T05:19:24.635Z,7.70
2019-04-29T05:21:58.295Z,7.80
2019-04-29T05:24:25.374Z,8.00
2019-04-29T05:26:59.485Z,8.10
2019-04-29T05:29:28.704Z,8.20
2019-04-29T05:31:55.541Z,8.20
2019-04-29T05:34:28.104Z,8.30
2019-04-29T05:37:00.064Z,8.40
2019-04-29T05:39:34.945Z,8.50
2019-04-29T05:42:02.016Z,8.60
2019-04-29T05:44:31.037Z,8.60
2019-04-29T05:47:02.958Z,8.70
2019-04-29T05:49:45.928Z,8.80
2019-04-29T05:52:17.581Z,8.90
2019-04-29T05:54:45.495Z,8.90
2019-04-29T05:57:13.609Z,9.00
2019-04-29T05:59:43.395Z,9.10
2019-04-29T06:02:09.609Z,9.20
2019-04-29T06:04:36.678Z,9.30
2019-04-29T06:07:03.783Z,9.30
2019-04-29T06:09:30.804Z,9.40
2019-04-29T06:11:57.785Z,9.40
2019-04-29T06:14:24.748Z,9.50
2019-04-29T06:16:52.912Z,9.60
2019-04-29T06:19:20.126Z,9.50
2019-04-29T06:21:47.343Z,9.60
2019-04-29T06:24:14.323Z,9.60
2019-04-29T06:26:43.631Z,9.60
2019-04-29T06:29:11.456Z,9.70
2019-04-29T06:31:38.438Z,9.70
2019-04-29T06:34:06.527Z,9.80
2019-04-29T06:36:35.748Z,9.80
2019-04-29T06:39:05.206Z,9.90
2019-04-29T06:41:32.195Z,10.00
2019-04-29T06:44:00.641Z,10.00
2019-04-29T06:46:28.262Z,10.10
2019-04-29T06:49:09.246Z,10.20
2019-04-29T06:51:23.982Z,10.30
2019-04-29T06:53:51.009Z,10.40
2019-04-29T06:56:20.227Z,10.40
2019-04-29T06:58:49.174Z,10.50
2019-04-29T07:01:16.450Z,10.60
2019-04-29T07:03:43.690Z,10.80
2019-04-29T07:06:10.654Z,11.70
2019-04-29T07:08:37.779Z,12.90
2019-04-29T07:11:04.776Z,14.50
2019-04-29T07:13:31.796Z,15.90
2019-04-29T07:15:58.862Z,15.80
2019-04-29T07:18:25.829Z,15.30
2019-04-29T07:20:52.979Z,15.20
2019-04-29T07:23:20.295Z,14.80
2019-04-29T07:25:47.200Z,14.80
2019-04-29T07:28:18.343Z,15.40
2019-04-29T07:31:00.691Z,17.40
2019-04-29T07:33:11.972Z,18.50
2019-04-29T07:35:42.936Z,19.20
2019-04-29T07:38:08.531Z,18.80
2019-04-29T07:40:38.873Z,18.20
2019-04-29T07:43:07.837Z,18.00
2019-04-29T07:45:43.987Z,17.70
2019-04-29T07:48:06.430Z,17.20
2019-04-29T07:50:33.612Z,17.40
2019-04-29T07:53:01.048Z,18.10
2019-04-29T07:55:30.863Z,18.10
2019-04-29T07:57:57.012Z,17.70
2019-04-29T08:00:33.635Z,17.70
2019-04-29T08:03:01.845Z,17.70
2019-04-29T08:05:29.239Z,17.60
2019-04-29T08:07:57.268Z,17.90
2019-04-29T08:10:28.630Z,18.00
2019-04-29T08:12:54.328Z,17.90
2019-04-29T08:15:21.484Z,17.90
2019-04-29T08:17:51.338Z,18.70
2019-04-29T08:20:17.388Z,20.00
2019-04-29T08:22:44.373Z,20.20
2019-04-29T08:25:11.555Z,20.60
2019-04-29T08:27:40.621Z,20.90
2019-04-29T08:30:11.436Z,21.10
2019-04-29T08:32:38.060Z,21.30
2019-04-29T08:35:05.369Z,22.10
2019-04-29T08:37:32.356Z,22.10
2019-04-29T08:40:15.185Z,21.80
2019-04-29T08:42:30.171Z,22.20
2019-04-29T08:45:08.304Z,22.40
2019-04-29T08:47:37.994Z,21.70
2019-04-29T08:50:06.572Z,22.20
2019-04-29T08:52:33.662Z,22.90
2019-04-29T08:55:01.445Z,22.90
2019-04-29T08:57:31.806Z,22.90
2019-04-29T08:59:57.293Z,22.10
2019-04-29T09:02:34.620Z,21.20
2019-04-29T09:04:54.011Z,20.60
2019-04-29T09:07:22.310Z,19.80
2019-04-29T09:09:50.304Z,19.00
2019-04-29T09:12:19.263Z,18.50
2019-04-29T09:14:47.633Z,18.00
2019-04-29T09:17:20.525Z,17.60
2019-04-29T09:19:43.533Z,17.40
2019-04-29T09:22:12.425Z,17.20
2019-04-29T09:24:43.474Z,17.00
2019-04-29T09:27:18.193Z,16.90
2019-04-29T09:29:46.507Z,16.80
2019-04-29T09:32:13.768Z,16.80
2019-04-29T09:34:40.786Z,16.70
2019-04-29T09:39:43.135Z,16.60
2019-04-29T09:42:13.070Z,16.60
2019-04-29T09:44:57.854Z,16.50
2019-04-29T09:47:25.028Z,16.50
2019-04-29T09:49:51.998Z,16.50
2019-04-29T09:52:19.052Z,16.40
2019-04-29T09:54:45.953Z,16.40
2019-04-29T09:57:12.909Z,16.40
2019-04-29T09:59:41.797Z,16.40
2019-04-29T10:02:13.386Z,16.50
2019-04-29T10:04:55.798Z,16.40
2019-04-29T10:07:14.396Z,16.30
2019-04-29T10:09:41.426Z,16.30
2019-04-29T10:12:08.309Z,16.20
2019-04-29T10:14:35.223Z,16.20
2019-04-29T10:17:19.239Z,16.20
2019-04-29T10:19:54.206Z,16.30
2019-04-29T10:22:21.229Z,16.20
2019-04-29T10:24:48.681Z,16.20
2019-04-29T10:27:15.634Z,16.30
2019-04-29T10:29:44.499Z,16.40
2019-04-29T10:32:11.378Z,16.50
2019-04-29T10:34:38.429Z,16.50
2019-04-29T10:37:06.142Z,16.70
2019-04-29T10:39:35.240Z,16.70
2019-04-29T10:42:04.370Z,16.60
2019-04-29T10:44:49.978Z,16.50
2019-04-29T10:47:24.581Z,16.60
2019-04-29T10:49:56.372Z,16.60
2019-04-29T10:52:27.043Z,16.60
2019-04-29T10:54:55.428Z,16.50
2019-04-29T10:57:23.340Z,16.40
2019-04-29T10:59:52.326Z,16.30
2019-04-29T11:02:35.149Z,16.40
2019-04-29T11:05:22.213Z,16.30
2019-04-29T11:07:50.976Z,16.30
2019-04-29T11:10:25.141Z,16.30
2019-04-29T11:12:55.928Z,16.30
2019-04-29T11:15:28.198Z,16.30
2019-04-29T11:17:59.248Z,16.30
2019-04-29T11:20:24.784Z,16.30
2019-04-29T11:23:02.767Z,16.30
2019-04-29T11:25:51.223Z,16.30
2019-04-29T11:28:19.322Z,16.20
2019-04-29T11:30:49.384Z,16.20
2019-04-29T11:33:22.970Z,16.10
2019-04-29T11:35:51.849Z,16.10
2019-04-29T11:38:19.053Z,16.10
2019-04-29T11:40:48.270Z,16.00
2019-04-29T11:43:17.273Z,16.10
2019-04-29T11:45:44.973Z,16.10
2019-04-29T11:48:12.168Z,16.10
2019-04-29T11:50:45.161Z,16.20
2019-04-29T11:53:15.291Z,16.20
2019-04-29T11:55:44.550Z,16.10
2019-04-29T11:58:12.995Z,16.20
2019-04-29T12:01:04.100Z,16.40
2019-04-29T12:03:37.672Z,16.50
2019-04-29T12:06:07.788Z,16.60
2019-04-29T12:08:34.820Z,16.70
2019-04-29T12:11:07.125Z,16.80
2019-04-29T12:13:32.849Z,16.80
2019-04-29T12:16:14.068Z,16.70
2019-04-29T12:18:49.027Z,16.70
2019-04-29T12:21:19.454Z,16.80
2019-04-29T12:23:53.262Z,16.90
2019-04-29T12:26:20.721Z,17.00
2019-04-29T12:28:47.757Z,17.00
2019-04-29T12:31:22.932Z,17.10
2019-04-29T12:33:51.925Z,17.10
2019-04-29T12:36:26.440Z,17.10
2019-04-29T12:39:13.608Z,17.10
2019-04-29T12:42:04.087Z,17.20
2019-04-29T12:44:35.308Z,17.20
2019-04-29T12:47:02.672Z,17.30
2019-04-29T12:49:29.914Z,17.40
2019-04-29T12:52:03.593Z,17.50
2019-04-29T12:54:30.566Z,17.50
2019-04-29T12:56:57.560Z,17.40
2019-04-29T12:59:24.486Z,17.30
2019-04-29T13:01:58.725Z,17.20
2019-04-29T13:04:45.227Z,17.00
2019-04-29T13:07:14.711Z,16.80
2019-04-29T13:09:43.527Z,16.70
2019-04-29T13:12:18.944Z,16.60
2019-04-29T13:14:47.200Z,16.70
2019-04-29T13:17:19.514Z,16.60
2019-04-29T13:20:07.344Z,16.60
2019-04-29T13:22:32.805Z,16.70
2019-04-29T13:24:59.968Z,16.70
2019-04-29T13:27:27.343Z,16.80
2019-04-29T13:29:54.538Z,16.70
2019-04-29T13:32:25.354Z,16.70
2019-04-29T13:34:52.866Z,16.70
2019-04-29T13:37:20.332Z,16.70
2019-04-29T13:39:55.289Z,16.60
2019-04-29T13:42:19.619Z,16.50
2019-04-29T13:45:04.932Z,16.40
2019-04-29T13:47:29.329Z,16.30
2019-04-29T13:50:16.957Z,16.20
2019-04-29T13:52:30.160Z,16.10
2019-04-29T13:54:57.166Z,16.10
2019-04-29T13:57:24.052Z,16.10
2019-04-29T13:59:55.469Z,16.00
2019-04-29T14:02:36.964Z,15.90
2019-04-29T14:05:08.160Z,15.90
2019-04-29T14:07:35.056Z,15.90
2019-04-29T14:10:02.025Z,15.80
2019-04-29T14:14:58.437Z,15.80
2019-04-29T14:17:31.451Z,15.80
2019-04-29T14:19:57.100Z,15.90
2019-04-29T14:22:24.804Z,15.90
2019-04-29T14:24:51.775Z,16.00
2019-04-29T14:27:24.961Z,16.10
2019-04-29T14:29:51.400Z,16.10
2019-04-29T14:32:18.523Z,16.10
2019-04-29T14:34:48.570Z,16.00
2019-04-29T14:37:24.672Z,15.90
2019-04-29T14:39:44.572Z,15.80
2019-04-29T14:42:13.469Z,15.80
2019-04-29T14:44:43.934Z,15.70
2019-04-29T14:47:12.784Z,15.70
2019-04-29T14:49:44.788Z,15.60
2019-04-29T14:52:13.130Z,15.70
2019-04-29T14:54:43.564Z,15.60
2019-04-29T14:57:10.717Z,15.60
2019-04-29T14:59:37.983Z,15.60
2019-04-29T15:02:07.218Z,15.60
2019-04-29T15:04:36.108Z,15.60
2019-04-29T15:07:03.772Z,15.60
2019-04-29T15:09:31.088Z,15.60
2019-04-29T15:12:00.167Z,15.60
2019-04-29T15:14:32.120Z,15.60
2019-04-29T15:17:13.459Z,15.60
2019-04-29T15:20:00.480Z,15.50
2019-04-29T15:22:36.090Z,15.50
2019-04-29T15:25:04.203Z,15.50
2019-04-29T15:27:31.212Z,15.50
2019-04-29T15:29:58.153Z,15.50
2019-04-29T15:32:28.483Z,15.50
2019-04-29T15:34:55.425Z,15.50
2019-04-29T15:37:22.453Z,15.50
2019-04-29T15:39:49.901Z,15.40
2019-04-29T15:42:17.386Z,15.40
2019-04-29T15:44:44.825Z,15.40
2019-04-29T15:47:12.006Z,15.40
2019-04-29T15:49:39.348Z,15.40
2019-04-29T15:52:06.749Z,15.40
2019-04-29T15:54:34.377Z,15.40
2019-04-29T15:57:03.466Z,15.40
2019-04-29T15:59:30.894Z,15.40
2019-04-29T16:04:35.414Z,15.40
2019-04-29T16:07:07.421Z,15.30
2019-04-29T16:09:51.790Z,15.30
2019-04-29T16:12:16.537Z,15.30
2019-04-29T16:14:48.627Z,15.30
2019-04-29T16:17:12.752Z,15.30
2019-04-29T16:19:39.765Z,15.30
2019-04-29T16:22:07.145Z,15.20
2019-04-29T16:24:38.207Z,15.20
2019-04-29T16:27:08.374Z,15.20
2019-04-29T16:29:32.329Z,15.10
2019-04-29T16:32:02.351Z,15.10
2019-04-29T16:34:28.306Z,15.00
2019-04-29T16:36:55.329Z,15.00
2019-04-29T16:39:22.429Z,14.90
2019-04-29T16:41:58.301Z,14.80
2019-04-29T16:44:34.569Z,14.80
2019-04-29T16:46:49.331Z,14.80
2019-04-29T16:49:17.095Z,14.70
2019-04-29T16:51:52.827Z,14.70
2019-04-29T16:54:20.609Z,14.60
2019-04-29T16:56:58.874Z,14.50
2019-04-29T16:59:26.393Z,14.50
2019-04-29T17:01:53.332Z,14.40
2019-04-29T17:04:21.642Z,14.40
2019-04-29T17:07:11.100Z,14.40
2019-04-29T17:09:31.162Z,14.30
2019-04-29T17:11:59.480Z,14.30
2019-04-29T17:14:26.467Z,14.30
2019-04-29T17:16:53.562Z,14.30
2019-04-29T17:19:20.623Z,14.20
2019-04-29T17:21:47.765Z,14.20
2019-04-29T17:24:14.844Z,14.30
2019-04-29T17:26:43.775Z,14.20
2019-04-29T17:29:38.650Z,14.20
2019-04-29T17:32:10.461Z,14.20
2019-04-29T17:34:58.010Z,14.20
2019-04-29T17:35:19.354Z,15.40
2019-04-29T17:37:08.938Z,14.10
2019-04-29T17:39:36.077Z,14.10
2019-04-29T17:42:03.357Z,14.00
2019-04-29T17:44:32.915Z,14.00
2019-04-29T17:47:18.587Z,14.00
2019-04-29T17:49:47.752Z,14.00
2019-04-29T17:52:20.216Z,13.90
2019-04-29T17:54:49.252Z,14.00
2019-04-29T17:57:31.292Z,14.00
2019-04-29T18:00:00.582Z,14.00
2019-04-29T18:02:37.709Z,14.00
2019-04-29T18:05:09.904Z,14.00
2019-04-29T18:07:56.768Z,14.00
2019-04-29T18:10:29.363Z,14.00
2019-04-29T18:12:55.001Z,14.00
2019-04-29T18:15:25.733Z,14.00
2019-04-29T18:17:52.748Z,13.90
2019-04-29T18:20:35.654Z,13.90
2019-04-29T18:23:22.942Z,13.90
2019-04-29T18:26:01.480Z,13.90
2019-04-29T18:28:29.065Z,13.90
2019-04-29T18:30:57.842Z,13.90
2019-04-29T18:33:30.027Z,13.90
2019-04-29T18:36:02.077Z,13.90
2019-04-29T18:38:26.209Z,13.90
2019-04-29T18:40:52.401Z,13.90
2019-04-29T18:43:23.127Z,13.80
2019-04-29T18:45:55.990Z,13.80
2019-04-29T18:48:21.458Z,13.80
2019-04-29T18:50:48.483Z,13.80
2019-04-29T18:53:15.633Z,13.70
2019-04-29T18:55:44.964Z,13.70
2019-04-29T18:58:12.492Z,13.70
2019-04-29T19:00:39.914Z,13.70
2019-04-29T19:03:09.034Z,13.70
2019-04-29T19:05:38.455Z,13.70
2019-04-29T19:08:14.457Z,13.70
2019-04-29T19:10:37.354Z,13.60
2019-04-29T19:13:11.965Z,13.60
2019-04-29T19:15:35.388Z,13.60
2019-04-29T19:18:05.576Z,13.60
2019-04-29T19:20:32.062Z,13.70
2019-04-29T19:23:05.790Z,13.70
2019-04-29T19:25:28.334Z,13.70
2019-04-29T19:27:55.675Z,13.70
2019-04-29T19:30:26.987Z,13.60
2019-04-29T19:32:53.985Z,13.60
2019-04-29T19:35:21.361Z,13.60
2019-04-29T19:37:53.602Z,13.60
2019-04-29T19:40:22.675Z,13.60
2019-04-29T19:42:49.865Z,13.60
2019-04-29T19:45:17.578Z,13.50
2019-04-29T19:47:47.414Z,13.50
2019-04-29T19:50:16.596Z,13.50
2019-04-29T19:52:42.782Z,13.50
2019-04-29T19:55:09.823Z,13.40
2019-04-29T19:57:42.219Z,13.40
2019-04-29T20:00:07.011Z,13.30
2019-04-29T20:02:35.936Z,13.30
2019-04-29T20:05:23.941Z,13.20
2019-04-29T20:07:52.043Z,13.20
2019-04-29T20:10:23.637Z,13.10
2019-04-29T20:12:54.714Z,13.10
2019-04-29T20:15:22.133Z,13.10
2019-04-29T20:17:56.603Z,13.10
2019-04-29T20:20:38.527Z,13.10
2019-04-29T20:23:05.915Z,13.10
2019-04-29T20:25:38.140Z,13.10
2019-04-29T20:28:05.725Z,13.00
2019-04-29T20:30:34.355Z,13.00
2019-04-29T20:33:08.731Z,12.90
2019-04-29T20:35:30.107Z,12.90
2019-04-29T20:38:00.146Z,12.90
2019-04-29T20:40:27.177Z,12.80
2019-04-29T20:42:54.357Z,12.80
2019-04-29T20:45:25.448Z,12.90
2019-04-29T20:47:51.839Z,12.90
2019-04-29T20:50:19.703Z,12.90
2019-04-29T20:53:07.359Z,12.90
2019-04-29T20:55:36.756Z,12.90
2019-04-29T20:58:04.463Z,12.90
2019-04-29T21:00:35.236Z,12.90
2019-04-29T21:03:04.184Z,12.90
2019-04-29T21:05:31.527Z,13.00
2019-04-29T21:08:03.373Z,12.90
2019-04-29T21:10:29.261Z,12.90
2019-04-29T21:13:16.066Z,12.90
2019-04-29T21:15:51.986Z,12.90
2019-04-29T21:18:15.933Z,12.90
2019-04-29T21:20:45.072Z,12.90
2019-04-29T21:23:11.882Z,12.90
2019-04-29T21:25:38.884Z,12.90
2019-04-29T21:28:06.929Z,12.80
2019-04-29T21:30:37.891Z,12.80
2019-04-29T21:33:02.855Z,12.80
2019-04-29T21:35:40.650Z,12.80
2019-04-29T21:38:17.871Z,12.80
2019-04-29T21:40:56.025Z,12.70
2019-04-29T21:43:31.300Z,12.80
2019-04-29T21:45:59.489Z,12.70
2019-04-29T21:48:33.334Z,12.70
2019-04-29T21:50:55.782Z,12.70
2019-04-29T21:53:22.779Z,12.70
2019-04-29T21:55:50.443Z,12.80
2019-04-29T21:58:17.520Z,12.70
2019-04-29T22:00:45.474Z,12.70
2019-04-29T22:03:12.812Z,12.70
2019-04-29T22:05:41.701Z,12.70
2019-04-29T22:08:08.720Z,12.70
2019-04-29T22:10:36.791Z,12.70
2019-04-29T22:13:05.059Z,12.70
2019-04-29T22:15:37.295Z,12.70
2019-04-29T22:18:01.655Z,12.60
2019-04-29T22:20:28.920Z,12.70
2019-04-29T22:22:55.997Z,12.60
2019-04-29T22:25:23.218Z,12.60
2019-04-29T22:27:50.317Z,12.60
2019-04-29T22:30:18.713Z,12.60
2019-04-29T22:32:47.115Z,12.60
2019-04-29T22:35:16.550Z,12.50
2019-04-29T22:37:45.442Z,12.50
2019-04-29T22:40:12.676Z,12.50
2019-04-29T22:42:50.772Z,12.50
2019-04-29T22:45:17.952Z,12.50
2019-04-29T22:47:45.054Z,12.50
2019-04-29T22:50:12.133Z,12.50
2019-04-29T22:52:39.129Z,12.50
2019-04-29T22:55:06.430Z,12.50
2019-04-29T22:57:33.390Z,12.50
2019-04-29T23:00:00.638Z,12.60
2019-04-29T23:02:28.544Z,12.50
2019-04-29T23:04:55.727Z,12.50
2019-04-29T23:07:23.469Z,12.50
2019-04-29T23:09:50.480Z,12.50
2019-04-29T23:12:18.649Z,12.50
2019-04-29T23:14:45.803Z,12.60
2019-04-29T23:17:13.376Z,12.50
2019-04-29T23:19:41.690Z,12.60
2019-04-29T23:22:14.728Z,12.60
2019-04-29T23:24:59.681Z,12.50
2019-04-29T23:27:26.862Z,12.60
2019-04-29T23:29:53.905Z,12.60
2019-04-29T23:32:20.957Z,12.60
2019-04-29T23:34:47.937Z,12.50
2019-04-29T23:37:15.036Z,12.50
2019-04-29T23:39:41.972Z,12.50
2019-04-29T23:42:12.157Z,12.40
2019-04-29T23:44:42.225Z,12.40
2019-04-29T23:47:10.236Z,12.40
2019-04-29T23:49:42.356Z,12.40
2019-04-29T23:52:06.898Z,12.40
2019-04-29T23:54:44.331Z,12.40
2019-04-29T23:57:06.026Z,12.40
2019-04-29T23:59:37.785Z,12.40
